createdAt,value
2022-09-28T20:10:34.353Z,96891.19
2022-09-28T20:13:02.454Z,96902.50
2022-09-28T20:15:31.282Z,96907.88
2022-09-28T20:17:59.334Z,96916.03
2022-09-28T20:20:28.265Z,96911.72
2022-09-28T20:22:56.099Z,96908.84
2022-09-28T20:26:37.213Z,96913.34
2022-09-28T20:29:40.290Z,96906.25
2022-09-28T20:41:52.276Z,96906.88
2022-09-28T20:44:55.514Z,96911.59
2022-09-28T20:47:59.367Z,96901.28
2022-09-28T20:51:05.109Z,96912.28
2022-09-28T20:54:08.312Z,96918.91
2022-09-28T20:57:18.278Z,96921.31
2022-09-28T21:00:23.627Z,96929.25
2022-09-28T21:03:27.018Z,96906.22
2022-09-28T21:06:31.747Z,96915.03
2022-09-28T21:09:35.152Z,96932.81
2022-09-28T21:12:41.897Z,96941.84
2022-09-28T21:15:45.144Z,96942.44
2022-09-28T21:18:48.674Z,96936.38
2022-09-28T21:21:52.060Z,96930.69
2022-09-28T21:24:55.001Z,96942.44
2022-09-28T21:27:59.592Z,96962.75
2022-09-28T21:31:06.788Z,96940.84
2022-09-28T21:34:17.044Z,96949.09
2022-09-28T21:37:20.236Z,96976.94
2022-09-28T21:40:24.041Z,96964.34
2022-09-28T21:43:29.888Z,96984.66
2022-09-28T21:46:34.696Z,96985.25
2022-09-28T21:49:38.243Z,96976.38
2022-09-28T21:52:41.850Z,96982.88
2022-09-28T21:55:52.327Z,96979.06
2022-09-28T21:58:57.046Z,96991.72
2022-09-28T22:02:00.151Z,97005.53
2022-09-28T22:05:04.238Z,96998.75
2022-09-28T22:08:07.244Z,96991.31
2022-09-28T22:11:14.237Z,96987.22
2022-09-28T22:14:18.685Z,96988.03
2022-09-28T22:17:22.509Z,96985.81
2022-09-28T22:20:26.011Z,96980.59
2022-09-28T22:23:30.260Z,96981.41
2022-09-28T22:26:35.668Z,96995.97
2022-09-28T22:29:41.806Z,97006.09
2022-09-28T22:32:46.847Z,97014.03
2022-09-28T22:35:51.394Z,97014.69
2022-09-28T22:38:56.067Z,97010.41
2022-09-28T22:41:59.256Z,97013.47
2022-09-28T22:45:03.675Z,97020.88
2022-09-28T22:48:07.500Z,97019.47
2022-09-28T22:51:10.528Z,97031.00
2022-09-28T22:54:16.406Z,97021.69
2022-09-28T22:57:19.405Z,97022.50
2022-09-28T23:00:23.874Z,97009.63
2022-09-28T23:03:26.810Z,97023.31
2022-09-28T23:06:31.278Z,97018.41
2022-09-28T23:09:34.306Z,97011.22
2022-09-28T23:12:38.072Z,97013.56
2022-09-28T23:15:42.514Z,97010.84
2022-09-28T23:18:46.160Z,97018.78
2022-09-28T23:21:49.048Z,97026.69
2022-09-28T23:24:52.217Z,97015.47
2022-09-28T23:27:55.163Z,97024.50
2022-09-28T23:31:09.096Z,97023.41
2022-09-28T23:34:12.058Z,97024.75
2022-09-28T23:37:15.170Z,97025.88
2022-09-28T23:40:18.710Z,97020.72
2022-09-28T23:43:21.908Z,97025.94
2022-09-28T23:46:26.239Z,97026.47
2022-09-28T23:49:29.808Z,97039.19
2022-09-28T23:52:32.761Z,97045.22
2022-09-28T23:55:36.013Z,97058.38
2022-09-28T23:58:38.940Z,97055.13
